sensor_id;sensor_type;location;lat;lon;timestamp;P1;durP1;ratioP1;P2;durP2;ratioP2
44358;SDS011;30077;52.474;13.326;2024-02-14T00:08:20;17.05;;;9.13;;
44358;SDS011;30077;52.474;13.326;2024-02-14T00:18:20;16.70;;;9.18;;
44358;SDS011;30077;52.474;13.326;2024-02-14T00:28:22;19.40;;;9.00;;
44358;SDS011;30077;52.474;13.326;2024-02-14T00:38:26;15.93;;;8.87;;
44358;SDS011;30077;52.474;13.326;2024-02-14T00:48:28;18.98;;;9.40;;
44358;SDS011;30077;52.474;13.326;2024-02-14T00:58:29;14.77;;;8.85;;
44358;SDS011;30077;52.474;13.326;2024-02-14T01:08:29;14.50;;;9.23;;
44358;SDS011;30077;52.474;13.326;2024-02-14T01:18:30;17.50;;;8.80;;
44358;SDS011;30077;52.474;13.326;2024-02-14T01:28:31;17.30;;;8.18;;
44358;SDS011;30077;52.474;13.326;2024-02-14T01:38:32;14.40;;;7.75;;
44358;SDS011;30077;52.474;13.326;2024-02-14T01:48:35;13.75;;;8.38;;
44358;SDS011;30077;52.474;13.326;2024-02-14T01:58:36;15.35;;;8.70;;
44358;SDS011;30077;52.474;13.326;2024-02-14T02:08:37;15.50;;;8.85;;
44358;SDS011;30077;52.474;13.326;2024-02-14T02:18:38;12.67;;;7.87;;
44358;SDS011;30077;52.474;13.326;2024-02-14T02:28:39;13.80;;;7.68;;
44358;SDS011;30077;52.474;13.326;2024-02-14T02:38:40;14.55;;;8.07;;
44358;SDS011;30077;52.474;13.326;2024-02-14T02:48:41;13.35;;;8.07;;
44358;SDS011;30077;52.474;13.326;2024-02-14T02:58:42;13.32;;;7.80;;
44358;SDS011;30077;52.474;13.326;2024-02-14T03:08:44;13.65;;;8.02;;
44358;SDS011;30077;52.474;13.326;2024-02-14T03:18:45;11.50;;;8.38;;
44358;SDS011;30077;52.474;13.326;2024-02-14T03:28:45;13.60;;;8.07;;
44358;SDS011;30077;52.474;13.326;2024-02-14T03:38:46;16.88;;;8.40;;
44358;SDS011;30077;52.474;13.326;2024-02-14T03:48:47;13.83;;;7.87;;
44358;SDS011;30077;52.474;13.326;2024-02-14T03:58:47;15.20;;;7.35;;
44358;SDS011;30077;52.474;13.326;2024-02-14T04:08:48;14.43;;;8.00;;
44358;SDS011;30077;52.474;13.326;2024-02-14T04:18:50;16.10;;;8.45;;
44358;SDS011;30077;52.474;13.326;2024-02-14T04:28:50;14.40;;;8.52;;
44358;SDS011;30077;52.474;13.326;2024-02-14T04:38:51;16.17;;;8.57;;
44358;SDS011;30077;52.474;13.326;2024-02-14T04:48:52;19.02;;;9.63;;
44358;SDS011;30077;52.474;13.326;2024-02-14T04:58:53;13.10;;;8.50;;
44358;SDS011;30077;52.474;13.326;2024-02-14T05:08:55;15.18;;;8.20;;
44358;SDS011;30077;52.474;13.326;2024-02-14T05:18:55;12.80;;;8.20;;
44358;SDS011;30077;52.474;13.326;2024-02-14T05:28:56;14.45;;;8.02;;
44358;SDS011;30077;52.474;13.326;2024-02-14T05:38:57;16.10;;;8.57;;
44358;SDS011;30077;52.474;13.326;2024-02-14T05:48:57;15.07;;;8.30;;
44358;SDS011;30077;52.474;13.326;2024-02-14T05:58:58;17.88;;;9.10;;
44358;SDS011;30077;52.474;13.326;2024-02-14T06:08:59;13.93;;;8.65;;
44358;SDS011;30077;52.474;13.326;2024-02-14T06:18:59;20.73;;;9.73;;
44358;SDS011;30077;52.474;13.326;2024-02-14T06:29:00;16.15;;;8.77;;
44358;SDS011;30077;52.474;13.326;2024-02-14T06:39:02;16.88;;;8.73;;
44358;SDS011;30077;52.474;13.326;2024-02-14T06:49:03;15.95;;;9.05;;
44358;SDS011;30077;52.474;13.326;2024-02-14T06:59:04;13.15;;;8.63;;
44358;SDS011;30077;52.474;13.326;2024-02-14T07:09:05;14.90;;;8.70;;
44358;SDS011;30077;52.474;13.326;2024-02-14T07:19:06;14.93;;;8.27;;
44358;SDS011;30077;52.474;13.326;2024-02-14T07:29:06;14.80;;;7.47;;
44358;SDS011;30077;52.474;13.326;2024-02-14T07:39:07;11.95;;;7.40;;
44358;SDS011;30077;52.474;13.326;2024-02-14T07:49:09;26.75;;;14.85;;
44358;SDS011;30077;52.474;13.326;2024-02-14T07:59:10;9.68;;;6.45;;
44358;SDS011;30077;52.474;13.326;2024-02-14T08:09:11;16.48;;;6.75;;
44358;SDS011;30077;52.474;13.326;2024-02-14T08:19:12;10.95;;;6.57;;
44358;SDS011;30077;52.474;13.326;2024-02-14T08:29:13;12.18;;;6.22;;
44358;SDS011;30077;52.474;13.326;2024-02-14T08:39:13;9.40;;;5.45;;
44358;SDS011;30077;52.474;13.326;2024-02-14T08:49:14;9.00;;;5.43;;
44358;SDS011;30077;52.474;13.326;2024-02-14T08:59:15;13.30;;;6.00;;
44358;SDS011;30077;52.474;13.326;2024-02-14T09:09:17;11.68;;;6.30;;
44358;SDS011;30077;52.474;13.326;2024-02-14T09:19:19;6.75;;;4.60;;
44358;SDS011;30077;52.474;13.326;2024-02-14T09:29:19;11.27;;;4.10;;
44358;SDS011;30077;52.474;13.326;2024-02-14T09:39:20;6.53;;;3.97;;
44358;SDS011;30077;52.474;13.326;2024-02-14T09:49:21;8.93;;;3.58;;
44358;SDS011;30077;52.474;13.326;2024-02-14T09:59:22;7.93;;;4.15;;
44358;SDS011;30077;52.474;13.326;2024-02-14T10:09:25;7.70;;;4.00;;
44358;SDS011;30077;52.474;13.326;2024-02-14T10:19:25;8.35;;;4.75;;
44358;SDS011;30077;52.474;13.326;2024-02-14T10:29:27;22.48;;;11.48;;
44358;SDS011;30077;52.474;13.326;2024-02-14T10:39:27;12.48;;;9.05;;
44358;SDS011;30077;52.474;13.326;2024-02-14T10:49:31;20.83;;;7.10;;
44358;SDS011;30077;52.474;13.326;2024-02-14T10:59:32;12.88;;;6.28;;
44358;SDS011;30077;52.474;13.326;2024-02-14T11:09:37;8.70;;;4.30;;
44358;SDS011;30077;52.474;13.326;2024-02-14T11:19:38;7.53;;;4.13;;
44358;SDS011;30077;52.474;13.326;2024-02-14T11:29:40;7.65;;;4.93;;
44358;SDS011;30077;52.474;13.326;2024-02-14T11:39:51;8.55;;;4.90;;
44358;SDS011;30077;52.474;13.326;2024-02-14T11:49:52;9.95;;;4.78;;
44358;SDS011;30077;52.474;13.326;2024-02-14T11:59:53;7.05;;;3.78;;
44358;SDS011;30077;52.474;13.326;2024-02-14T12:09:54;6.88;;;4.65;;
44358;SDS011;30077;52.474;13.326;2024-02-14T12:20:05;7.03;;;4.82;;
44358;SDS011;30077;52.474;13.326;2024-02-14T12:30:10;7.25;;;4.28;;
44358;SDS011;30077;52.474;13.326;2024-02-14T12:40:12;7.32;;;4.25;;
44358;SDS011;30077;52.474;13.326;2024-02-14T12:50:12;9.57;;;4.63;;
44358;SDS011;30077;52.474;13.326;2024-02-14T13:00:14;8.10;;;4.70;;
44358;SDS011;30077;52.474;13.326;2024-02-14T13:10:16;13.13;;;5.25;;
44358;SDS011;30077;52.474;13.326;2024-02-14T13:20:18;8.40;;;4.82;;
44358;SDS011;30077;52.474;13.326;2024-02-14T13:30:18;8.88;;;4.72;;
44358;SDS011;30077;52.474;13.326;2024-02-14T13:40:19;8.18;;;4.97;;
44358;SDS011;30077;52.474;13.326;2024-02-14T13:50:20;11.30;;;5.00;;
44358;SDS011;30077;52.474;13.326;2024-02-14T14:00:20;14.32;;;6.60;;
44358;SDS011;30077;52.474;13.326;2024-02-14T14:10:21;10.57;;;5.47;;
44358;SDS011;30077;52.474;13.326;2024-02-14T14:20:23;10.18;;;6.07;;
44358;SDS011;30077;52.474;13.326;2024-02-14T14:30:24;12.35;;;6.00;;
44358;SDS011;30077;52.474;13.326;2024-02-14T14:40:24;14.17;;;5.77;;
44358;SDS011;30077;52.474;13.326;2024-02-14T14:50:26;10.25;;;5.15;;
44358;SDS011;30077;52.474;13.326;2024-02-14T15:00:26;6.00;;;4.87;;
44358;SDS011;30077;52.474;13.326;2024-02-14T15:10:27;8.13;;;5.22;;
44358;SDS011;30077;52.474;13.326;2024-02-14T15:20:28;9.10;;;5.85;;
44358;SDS011;30077;52.474;13.326;2024-02-14T15:30:30;10.82;;;5.15;;
44358;SDS011;30077;52.474;13.326;2024-02-14T15:40:50;8.48;;;5.35;;
44358;SDS011;30077;52.474;13.326;2024-02-14T15:50:54;10.32;;;6.30;;
44358;SDS011;30077;52.474;13.326;2024-02-14T16:00:55;8.07;;;5.72;;
44358;SDS011;30077;52.474;13.326;2024-02-14T16:10:57;12.85;;;6.63;;
44358;SDS011;30077;52.474;13.326;2024-02-14T16:20:59;9.43;;;6.32;;
44358;SDS011;30077;52.474;13.326;2024-02-14T16:30:59;9.60;;;6.10;;
44358;SDS011;30077;52.474;13.326;2024-02-14T16:41:00;10.77;;;6.57;;
44358;SDS011;30077;52.474;13.326;2024-02-14T16:51:01;12.10;;;6.50;;
44358;SDS011;30077;52.474;13.326;2024-02-14T17:01:01;10.10;;;6.20;;
44358;SDS011;30077;52.474;13.326;2024-02-14T17:11:03;12.15;;;6.38;;
44358;SDS011;30077;52.474;13.326;2024-02-14T17:21:03;11.25;;;6.20;;
44358;SDS011;30077;52.474;13.326;2024-02-14T17:31:04;9.30;;;6.07;;
44358;SDS011;30077;52.474;13.326;2024-02-14T17:41:05;10.00;;;5.97;;
44358;SDS011;30077;52.474;13.326;2024-02-14T17:51:07;8.25;;;5.18;;
44358;SDS011;30077;52.474;13.326;2024-02-14T18:01:10;10.32;;;6.05;;
44358;SDS011;30077;52.474;13.326;2024-02-14T18:11:11;10.55;;;5.97;;
44358;SDS011;30077;52.474;13.326;2024-02-14T18:21:12;8.55;;;5.38;;
44358;SDS011;30077;52.474;13.326;2024-02-14T18:31:13;9.15;;;5.63;;
44358;SDS011;30077;52.474;13.326;2024-02-14T18:41:14;9.73;;;5.60;;
44358;SDS011;30077;52.474;13.326;2024-02-14T18:51:14;8.37;;;5.33;;
44358;SDS011;30077;52.474;13.326;2024-02-14T19:01:22;7.53;;;5.40;;
44358;SDS011;30077;52.474;13.326;2024-02-14T19:11:24;10.73;;;5.20;;
44358;SDS011;30077;52.474;13.326;2024-02-14T19:21:25;8.47;;;4.17;;
44358;SDS011;30077;52.474;13.326;2024-02-14T19:31:26;6.35;;;4.13;;
44358;SDS011;30077;52.474;13.326;2024-02-14T19:41:26;5.38;;;4.25;;
44358;SDS011;30077;52.474;13.326;2024-02-14T19:51:27;9.93;;;4.90;;
44358;SDS011;30077;52.474;13.326;2024-02-14T20:01:30;5.65;;;3.97;;
44358;SDS011;30077;52.474;13.326;2024-02-14T20:11:31;5.13;;;4.00;;
44358;SDS011;30077;52.474;13.326;2024-02-14T20:21:32;6.40;;;4.00;;
44358;SDS011;30077;52.474;13.326;2024-02-14T20:31:32;12.48;;;7.65;;
44358;SDS011;30077;52.474;13.326;2024-02-14T20:41:35;7.95;;;4.40;;
44358;SDS011;30077;52.474;13.326;2024-02-14T20:51:35;8.73;;;4.77;;
44358;SDS011;30077;52.474;13.326;2024-02-14T21:01:36;9.98;;;4.70;;
44358;SDS011;30077;52.474;13.326;2024-02-14T21:11:38;5.22;;;4.72;;
44358;SDS011;30077;52.474;13.326;2024-02-14T21:21:39;12.18;;;5.88;;
44358;SDS011;30077;52.474;13.326;2024-02-14T21:31:39;11.50;;;6.60;;
44358;SDS011;30077;52.474;13.326;2024-02-14T21:41:43;19.03;;;10.17;;
44358;SDS011;30077;52.474;13.326;2024-02-14T22:01:48;9.75;;;6.45;;
44358;SDS011;30077;52.474;13.326;2024-02-14T22:11:48;9.30;;;7.03;;
44358;SDS011;30077;52.474;13.326;2024-02-14T22:21:49;11.55;;;7.95;;
44358;SDS011;30077;52.474;13.326;2024-02-14T22:31:50;12.07;;;8.43;;
44358;SDS011;30077;52.474;13.326;2024-02-14T22:41:52;10.93;;;7.93;;
44358;SDS011;30077;52.474;13.326;2024-02-14T22:51:53;19.70;;;11.18;;
44358;SDS011;30077;52.474;13.326;2024-02-14T23:01:54;14.15;;;8.88;;
44358;SDS011;30077;52.474;13.326;2024-02-14T23:11:56;11.18;;;7.78;;
44358;SDS011;30077;52.474;13.326;2024-02-14T23:21:56;13.77;;;9.07;;
44358;SDS011;30077;52.474;13.326;2024-02-14T23:31:57;12.98;;;8.68;;
44358;SDS011;30077;52.474;13.326;2024-02-14T23:41:58;13.17;;;8.67;;
44358;SDS011;30077;52.474;13.326;2024-02-14T23:51:58;12.90;;;9.60;;
